Time;durP1;ratioP1;P1;durP2;ratioP2;P2;SDS_P1;SDS_P2;PMS_P1;PMS_P2;Temp;Humidity;BMP_temperature;BMP_pressure;BME280_temperature;BME280_humidity;BME280_pressure;Samples;Min_cycle;Max_cycle;Signal;HPM_P1;HPM_P2
2021/07/20 00:01:49;;;;;;;10.43;8.43;;;;;;;16.87;100.00;92872.75;1705517;83;21099;-78
2021/07/20 00:04:15;;;;;;;11.38;9.00;;;;;;;16.95;100.00;92865.77;1705811;83;21055;-77
2021/07/20 00:06:45;;;;;;;10.50;8.08;;;;;;;17.05;100.00;92863.25;1707171;83;21044;-77
2021/07/20 00:09:11;;;;;;;8.58;7.78;;;;;;;17.12;100.00;92861.61;1708794;83;21091;-78
2021/07/20 00:11:41;;;;;;;10.20;7.10;;;;;;;17.15;100.00;92855.22;1707710;83;21084;-77
2021/07/20 00:14:10;;;;;;;9.55;7.87;;;;;;;17.12;100.00;92852.00;1711270;83;21210;-79
2021/07/20 00:16:37;;;;;;;10.55;7.58;;;;;;;17.10;100.00;92846.17;1710954;83;21052;-78
2021/07/20 00:19:03;;;;;;;10.75;7.45;;;;;;;17.09;100.00;92845.27;1740671;81;21049;-78
2021/07/20 00:21:32;;;;;;;10.13;8.63;;;;;;;17.09;100.00;92852.89;1749330;81;21294;-79
2021/07/20 00:23:58;;;;;;;10.20;7.37;;;;;;;17.05;100.00;92850.13;1707295;83;21262;-79
2021/07/20 00:26:25;;;;;;;9.70;7.58;;;;;;;16.97;100.00;92846.88;1711915;83;21103;-78
2021/07/20 00:28:51;;;;;;;9.30;7.50;;;;;;;16.91;100.00;92850.04;1710153;83;21103;-76
2021/07/20 00:31:18;;;;;;;8.90;8.00;;;;;;;16.88;100.00;92846.81;1711043;83;21087;-75
2021/07/20 00:33:44;;;;;;;9.23;8.30;;;;;;;16.93;100.00;92849.76;1710830;83;21048;-77
2021/07/20 00:36:12;;;;;;;8.85;7.97;;;;;;;17.01;100.00;92851.63;1711018;83;21657;-77
2021/07/20 00:38:39;;;;;;;11.10;7.58;;;;;;;17.05;100.00;92846.00;1711170;83;21517;-77
2021/07/20 00:41:06;;;;;;;13.20;7.10;;;;;;;17.08;100.00;92847.86;1710884;83;21550;-76
2021/07/20 00:43:33;;;;;;;7.90;7.08;;;;;;;17.05;100.00;92848.14;1752019;81;21179;-76
2021/07/20 00:46:00;;;;;;;10.82;8.68;;;;;;;16.95;100.00;92852.05;1740860;80;21549;-76
2021/07/20 00:48:27;;;;;;;10.50;7.60;;;;;;;16.84;100.00;92850.30;1707872;83;21075;-76
2021/07/20 00:53:21;;;;;;;14.60;7.78;;;;;;;16.77;100.00;92844.45;1768892;80;21093;-77
2021/07/20 00:55:50;;;;;;;9.03;7.72;;;;;;;16.77;100.00;92834.84;1718173;80;21321;-77
2021/07/20 00:58:17;;;;;;;8.70;7.33;;;;;;;16.82;100.00;92837.64;1741572;81;21082;-78
2021/07/20 01:00:47;;;;;;;11.65;6.87;;;;;;;16.90;100.00;92835.55;1749036;80;21425;-78
2021/07/20 01:03:12;;;;;;;8.80;7.37;;;;;;;16.93;100.00;92826.42;1705329;83;21130;-77
2021/07/20 01:05:38;;;;;;;8.55;7.70;;;;;;;16.94;100.00;92818.33;1705971;83;21614;-78
2021/07/20 01:08:07;;;;;;;10.95;8.15;;;;;;;16.94;100.00;92823.06;1760339;81;21060;-78
2021/07/20 01:10:37;;;;;;;8.80;7.50;;;;;;;16.94;100.00;92811.46;1726853;80;21060;-76
2021/07/20 01:13:06;;;;;;;15.10;8.13;;;;;;;16.95;100.00;92811.61;1705489;84;21054;-77
2021/07/20 01:15:37;;;;;;;7.55;6.85;;;;;;;16.96;100.00;92805.51;1704922;84;21217;-78
2021/07/20 01:18:05;;;;;;;9.65;7.67;;;;;;;16.96;100.00;92801.39;1706392;84;21515;-77
2021/07/20 01:20:32;;;;;;;10.50;7.28;;;;;;;16.98;100.00;92803.09;1707087;83;21580;-77
2021/07/20 01:23:09;;;;;;;10.08;7.08;;;;;;;16.96;100.00;92808.25;1705379;84;21596;-78
2021/07/20 01:25:39;;;;;;;9.40;6.75;;;;;;;16.94;100.00;92801.09;1707636;83;20976;-77
2021/07/20 01:28:07;;;;;;;10.03;8.13;;;;;;;16.91;100.00;92800.00;1712127;81;21198;-77
2021/07/20 01:30:35;;;;;;;9.48;8.30;;;;;;;16.93;100.00;92804.45;1757589;80;21055;-78
2021/07/20 01:33:02;;;;;;;8.95;8.13;;;;;;;16.99;100.00;92798.51;1706594;84;21051;-78
2021/07/20 01:35:30;;;;;;;8.38;7.58;;;;;;;17.08;100.00;92804.67;1710673;83;21791;-78
2021/07/20 01:37:57;;;;;;;12.93;7.92;;;;;;;17.11;100.00;92807.89;1690959;83;21102;-77
2021/07/20 01:40:26;;;;;;;9.48;7.78;;;;;;;17.04;100.00;92813.66;1742349;81;21151;-78
2021/07/20 01:42:53;;;;;;;11.65;8.33;;;;;;;16.94;100.00;92810.09;1753183;81;21071;-78
2021/07/20 01:45:21;;;;;;;9.58;7.42;;;;;;;16.88;100.00;92822.86;1707606;83;20973;-78
2021/07/20 01:47:50;;;;;;;8.65;7.80;;;;;;;16.90;100.00;92820.45;1713386;83;21043;-77
2021/07/20 01:50:18;;;;;;;9.10;7.62;;;;;;;16.90;100.00;92822.43;1763225;81;21015;-78
2021/07/20 01:52:45;;;;;;;8.33;7.40;;;;;;;16.86;100.00;92823.17;1710853;82;21145;-78
2021/07/20 01:55:13;;;;;;;11.50;7.92;;;;;;;16.80;100.00;92816.72;1687388;83;21463;-78
2021/07/20 01:57:41;;;;;;;9.70;8.00;;;;;;;16.80;100.00;92822.21;1711360;81;21302;-78
2021/07/20 02:00:20;;;;;;;11.25;8.63;;;;;;;16.85;100.00;92820.25;1728896;82;21086;-78
2021/07/20 02:08:26;;;;;;;9.40;7.50;;;;;;;17.03;100.00;92820.34;1708475;83;21090;-78
2021/07/20 02:10:57;;;;;;;10.13;7.30;;;;;;;17.09;100.00;92816.42;1746914;81;21335;-77
2021/07/20 02:13:38;;;;;;;8.30;6.97;;;;;;;17.08;100.00;92814.90;1740089;80;21051;-78
2021/07/20 02:16:10;;;;;;;8.98;6.95;;;;;;;17.04;100.00;92817.78;1695719;81;21046;-78
2021/07/20 02:18:45;;;;;;;15.23;7.75;;;;;;;17.03;100.00;92812.11;1761003;80;21145;-77
2021/07/20 02:21:14;;;;;;;7.85;6.72;;;;;;;17.08;100.00;92813.52;1705523;83;21079;-79
2021/07/20 02:23:47;;;;;;;7.95;6.65;;;;;;;17.05;100.00;92819.30;1706783;84;21146;-79
2021/07/20 02:26:13;;;;;;;12.15;7.08;;;;;;;16.94;100.00;92808.72;1706445;83;21059;-77
2021/07/20 02:28:41;;;;;;;10.45;6.92;;;;;;;16.83;100.00;92809.73;1718230;81;21031;-77
2021/07/20 02:31:10;;;;;;;9.03;7.37;;;;;;;16.76;100.00;92801.75;1751235;80;21119;-78
2021/07/20 02:33:37;;;;;;;8.95;7.37;;;;;;;16.74;100.00;92801.45;1706159;84;21613;-78
2021/07/20 02:36:07;;;;;;;11.40;7.83;;;;;;;16.71;100.00;92796.22;1707651;83;21130;-78
2021/07/20 02:38:38;;;;;;;8.00;7.25;;;;;;;16.67;100.00;92795.58;1707069;83;21040;-78
2021/07/20 02:41:05;;;;;;;7.60;6.80;;;;;;;16.65;100.00;92795.86;1706496;84;21636;-78
2021/07/20 02:43:32;;;;;;;9.88;8.00;;;;;;;16.61;100.00;92798.73;1704959;83;21113;-78
2021/07/20 02:46:00;;;;;;;9.75;8.20;;;;;;;16.61;100.00;92800.11;1717811;81;21037;-78
2021/07/20 02:48:27;;;;;;;11.93;7.35;;;;;;;16.61;100.00;92805.60;1768761;81;21128;-79
2021/07/20 02:50:55;;;;;;;8.85;6.67;;;;;;;16.64;100.00;92807.45;1707682;80;21185;-78
2021/07/20 02:53:27;;;;;;;9.98;6.67;;;;;;;16.71;100.00;92812.69;1753588;81;21311;-78
2021/07/20 02:56:05;;;;;;;6.75;6.15;;;;;;;16.72;100.00;92811.46;1730468;80;21106;-77
2021/07/20 02:58:34;;;;;;;10.90;6.58;;;;;;;16.74;100.00;92806.33;1706388;83;21586;-77
2021/07/20 03:01:04;;;;;;;8.70;7.25;;;;;;;16.82;100.00;92810.95;1717545;81;21188;-78
2021/07/20 03:03:32;;;;;;;7.45;6.50;;;;;;;16.88;100.00;92811.12;1747842;81;21038;-78
2021/07/20 03:05:59;;;;;;;7.70;6.90;;;;;;;16.90;100.00;92815.56;1708368;81;21039;-79
2021/07/20 03:08:28;;;;;;;10.75;7.70;;;;;;;16.93;100.00;92818.18;1706119;84;21135;-78
2021/07/20 03:10:58;;;;;;;8.83;6.65;;;;;;;16.98;100.00;92814.08;1706507;83;21088;-78
2021/07/20 03:13:26;;;;;;;7.80;6.45;;;;;;;17.04;100.00;92811.50;1706626;84;21075;-78
2021/07/20 03:15:53;;;;;;;10.40;6.22;;;;;;;17.04;100.00;92806.79;1705441;83;21063;-78
2021/07/20 03:18:24;;;;;;;8.38;7.03;;;;;;;17.03;100.00;92813.48;1686368;84;21060;-80
2021/07/20 03:20:51;;;;;;;10.82;7.40;;;;;;;17.03;100.00;92820.34;1763633;81;21112;-78
2021/07/20 03:23:18;;;;;;;8.23;6.95;;;;;;;17.06;100.00;92818.69;1733444;80;21076;-79
2021/07/20 03:25:45;;;;;;;12.93;7.83;;;;;;;17.13;100.00;92817.81;1718355;82;21023;-79
2021/07/20 03:28:13;;;;;;;9.58;7.40;;;;;;;17.12;100.00;92817.66;1726729;82;21143;-79
2021/07/20 03:30:40;;;;;;;8.13;7.33;;;;;;;17.11;100.00;92823.00;1673149;84;21185;-78
2021/07/20 03:33:09;;;;;;;10.23;7.67;;;;;;;17.08;100.00;92823.90;1765959;81;22322;-78
2021/07/20 03:35:44;;;;;;;9.90;7.08;;;;;;;17.11;100.00;92816.14;1717289;82;21005;-79
2021/07/20 03:38:12;;;;;;;8.80;7.67;;;;;;;17.17;100.00;92813.55;1696211;83;21033;-79
2021/07/20 03:40:40;;;;;;;8.10;7.30;;;;;;;17.16;100.00;92814.16;1735456;82;21047;-79
2021/07/20 03:43:07;;;;;;;8.08;7.25;;;;;;;17.17;100.00;92810.19;1715631;83;21590;-79
2021/07/20 03:45:37;;;;;;;7.58;6.75;;;;;;;17.19;100.00;92816.62;1691567;83;21165;-77
2021/07/20 03:48:04;;;;;;;15.28;9.88;;;;;;;17.17;100.00;92810.80;1665455;83;21544;-80
2021/07/20 03:50:36;;;;;;;8.63;7.55;;;;;;;17.16;100.00;92806.53;1710894;83;21569;-79
2021/07/20 03:53:04;;;;;;;9.48;8.48;;;;;;;17.14;100.00;92798.73;1707807;83;21612;-79
2021/07/20 03:55:32;;;;;;;14.07;9.43;;;;;;;17.19;100.00;92802.28;1706912;82;21120;-78
2021/07/20 03:57:58;;;;;;;11.93;9.00;;;;;;;17.26;100.00;92801.83;1697023;82;22155;-79
2021/07/20 04:00:25;;;;;;;10.75;9.65;;;;;;;17.30;100.00;92791.45;1706885;82;21626;-78
2021/07/20 04:03:20;;;;;;;12.55;9.63;;;;;;;17.38;100.00;92792.73;1737427;81;21055;-79
2021/07/20 04:05:27;;;;;;;19.27;9.88;;;;;;;17.42;100.00;92791.97;1688571;83;21112;-79
2021/07/20 04:07:55;;;;;;;10.58;9.48;;;;;;;17.45;100.00;92795.17;1743240;80;20984;-78
2021/07/20 04:10:24;;;;;;;12.45;10.28;;;;;;;17.44;100.00;92799.14;1700151;80;21129;-79
2021/07/20 04:12:56;;;;;;;13.95;9.15;;;;;;;17.44;100.00;92790.90;1769169;80;21090;-79
2021/07/20 04:15:29;;;;;;;10.43;8.55;;;;;;;17.42;100.00;92793.34;1680520;84;21107;-78
2021/07/20 04:18:00;;;;;;;7.75;5.95;;;;;;;17.39;100.00;92792.27;1703399;81;21026;-77
2021/07/20 04:20:29;;;;;;;6.37;5.75;;;;;;;17.35;100.00;92793.02;1708241;83;21049;-78
2021/07/20 04:22:56;;;;;;;7.45;5.70;;;;;;;17.31;100.00;92797.13;1718170;82;21135;-80
2021/07/20 04:25:24;;;;;;;7.83;7.08;;;;;;;17.29;100.00;92797.56;1694490;82;21051;-78
2021/07/20 04:27:52;;;;;;;10.32;7.37;;;;;;;17.31;100.00;92791.63;1639471;87;21053;-79
2021/07/20 04:30:19;;;;;;;7.33;6.20;;;;;;;17.30;100.00;92789.50;1718757;82;21061;-79
2021/07/20 04:32:47;;;;;;;4.15;3.75;;;;;;;17.28;100.00;92789.79;1690853;83;21246;-78
2021/07/20 04:35:16;;;;;;;4.65;2.80;;;;;;;17.21;99.83;92793.57;1669428;83;21122;-78
2021/07/20 04:37:48;;;;;;;4.00;3.60;;;;;;;17.17;100.00;92786.84;1679973;83;21126;-79
2021/07/20 04:40:16;;;;;;;4.45;3.42;;;;;;;17.13;100.00;92782.09;1686949;83;21067;-77
2021/07/20 04:42:43;;;;;;;1.62;1.52;;;;;;;17.11;100.00;92779.05;1725539;82;21120;-82
2021/07/20 04:45:11;;;;;;;1.50;1.40;;;;;;;17.12;100.00;92781.95;1695283;82;21083;-78
2021/07/20 04:47:44;;;;;;;1.50;0.80;;;;;;;17.11;99.15;92784.55;1667034;82;21294;-79
2021/07/20 04:50:15;;;;;;;9.55;4.75;;;;;;;17.10;99.24;92793.22;1682124;82;21137;-79
2021/07/20 04:52:42;;;;;;;9.30;5.53;;;;;;;17.09;99.43;92797.95;1680270;82;21052;-80
2021/07/20 04:55:11;;;;;;;1.45;1.10;;;;;;;17.13;99.34;92795.07;1715950;82;21141;-79
2021/07/20 04:57:39;;;;;;;2.98;1.98;;;;;;;17.13;99.01;92798.58;1739563;80;21132;-77
2021/07/20 05:00:10;;;;;;;1.92;1.27;;;;;;;17.11;99.29;92802.40;1731789;80;21494;-79
2021/07/20 05:02:40;;;;;;;7.35;4.08;;;;;;;17.07;99.01;92801.75;1725355;81;20997;-79
2021/07/20 05:05:13;;;;;;;3.92;2.45;;;;;;;17.04;99.40;92806.79;1703216;82;21672;-77
2021/07/20 05:07:42;;;;;;;5.27;2.27;;;;;;;17.07;99.26;92799.61;1676161;82;21741;-77
2021/07/20 05:10:12;;;;;;;2.98;1.70;;;;;;;17.07;99.26;92799.61;1727288;82;21584;-78
2021/07/20 05:12:41;;;;;;;1.27;1.17;;;;;;;17.07;100.00;92791.37;1711774;81;21062;-77
2021/07/20 05:15:16;;;;;;;0.98;0.98;;;;;;;17.12;100.00;92786.68;1723256;81;21379;-77
2021/07/20 05:17:42;;;;;;;1.17;1.10;;;;;;;17.18;100.00;92786.98;1719486;80;21072;-77
2021/07/20 05:20:17;;;;;;;7.47;3.70;;;;;;;17.22;99.73;92783.48;1712795;82;21077;-78
2021/07/20 05:23:01;;;;;;;14.85;5.20;;;;;;;17.26;99.42;92779.23;1674348;83;21367;-78
2021/07/20 05:25:29;;;;;;;3.58;2.40;;;;;;;17.27;99.46;92786.28;1706835;82;21195;-78
2021/07/20 05:27:56;;;;;;;1.32;1.22;;;;;;;17.26;99.87;92791.59;1649724;85;21655;-79
2021/07/20 05:30:28;;;;;;;2.87;1.65;;;;;;;17.23;99.83;92800.77;1693376;82;21061;-78
2021/07/20 05:32:56;;;;;;;1.47;1.37;;;;;;;17.22;99.72;92805.47;1683381;82;21069;-79
2021/07/20 05:35:24;;;;;;;1.90;1.70;;;;;;;17.21;99.76;92796.32;1710588;82;21124;-77
2021/07/20 05:37:51;;;;;;;3.77;2.72;;;;;;;17.19;99.35;92802.89;1717428;82;21133;-78
2021/07/20 05:40:22;;;;;;;1.98;1.80;;;;;;;17.17;99.38;92808.05;1666520;81;21125;-80
2021/07/20 05:42:51;;;;;;;2.87;2.67;;;;;;;17.12;98.73;92812.78;1770537;79;22157;-78
2021/07/20 05:45:34;;;;;;;6.47;4.72;;;;;;;16.98;98.97;92818.95;1720957;79;21061;-78
2021/07/20 05:48:01;;;;;;;2.50;2.30;;;;;;;16.92;100.00;92819.98;1727049;79;21106;-79
2021/07/20 05:50:53;;;;;;;3.30;2.65;;;;;;;16.92;100.00;92820.74;1762324;78;21037;-78
2021/07/20 05:53:38;;;;;;;3.08;2.87;;;;;;;16.96;100.00;92827.48;1716832;81;21128;-78
2021/07/20 05:56:13;;;;;;;4.15;2.87;;;;;;;16.92;99.95;92830.36;1655621;79;21049;-78
2021/07/20 05:58:44;;;;;;;3.15;2.95;;;;;;;16.87;100.00;92835.06;1775323;79;21029;-79
2021/07/20 06:01:20;;;;;;;3.15;2.90;;;;;;;16.87;100.00;92835.67;1648880;84;21057;-77
2021/07/20 06:03:51;;;;;;;3.30;3.00;;;;;;;16.87;100.00;92835.06;1690140;82;21172;-78
2021/07/20 06:06:20;;;;;;;3.12;2.72;;;;;;;16.87;100.00;92837.81;1688926;82;21153;-78
2021/07/20 06:08:49;;;;;;;4.37;3.50;;;;;;;16.93;100.00;92831.14;1700950;82;21105;-78
2021/07/20 06:11:19;;;;;;;3.60;3.30;;;;;;;16.98;100.00;92831.31;1708790;82;21070;-78
2021/07/20 06:13:54;;;;;;;3.27;2.95;;;;;;;17.02;100.00;92827.06;1658494;82;21090;-78
2021/07/20 06:16:25;;;;;;;3.02;2.72;;;;;;;17.07;100.00;92820.21;1707453;82;21127;-78
2021/07/20 06:19:06;;;;;;;3.12;2.92;;;;;;;17.11;100.00;92817.51;1670691;83;21085;-77
2021/07/20 06:21:38;;;;;;;3.20;2.90;;;;;;;17.13;100.00;92818.42;1698358;82;20951;-78
2021/07/20 06:24:17;;;;;;;2.62;2.42;;;;;;;17.12;100.00;92813.54;1664927;82;21091;-78
2021/07/20 06:26:44;;;;;;;3.35;3.05;;;;;;;17.14;100.00;92813.08;1706311;82;21068;-79
2021/07/20 06:29:34;;;;;;;3.08;2.87;;;;;;;17.16;100.00;92816.15;1703010;82;21170;-79
2021/07/20 06:31:47;;;;;;;;;;;;;;;;;;;;;
2021/07/20 06:34:28;;;;;;;2.95;2.75;;;;;;;17.16;100.00;92811.41;1680549;83;21115;-79
2021/07/20 06:36:58;;;;;;;3.65;3.35;;;;;;;17.13;100.00;92813.69;1695821;82;21032;-78
2021/07/20 06:39:30;;;;;;;3.27;2.80;;;;;;;17.08;100.00;92810.16;1710129;82;21081;-78
2021/07/20 06:42:05;;;;;;;2.62;2.42;;;;;;;17.05;100.00;92813.05;1712466;82;21148;-79
2021/07/20 06:44:35;;;;;;;2.52;2.33;;;;;;;16.98;100.00;92820.94;1690354;82;21079;-80
2021/07/20 06:47:05;;;;;;;2.98;2.77;;;;;;;16.94;100.00;92814.20;1667954;82;21069;-81
2021/07/20 06:49:35;;;;;;;4.12;2.55;;;;;;;16.89;100.00;92812.67;1686679;82;21018;-80
2021/07/20 06:52:09;;;;;;;3.10;2.90;;;;;;;16.87;100.00;92815.08;1707464;82;21064;-80
2021/07/20 06:54:36;;;;;;;3.47;2.90;;;;;;;16.84;100.00;92814.00;1678503;82;26914;-79
2021/07/20 06:57:05;;;;;;;4.20;3.35;;;;;;;16.82;100.00;92811.56;1678630;82;21090;-80
2021/07/20 06:59:36;;;;;;;3.87;3.58;;;;;;;16.80;100.00;92809.86;1700119;82;21014;-80
2021/07/20 07:02:10;;;;;;;5.12;3.05;;;;;;;16.81;100.00;92814.13;1714267;82;21040;-82
2021/07/20 07:04:51;;;;;;;4.00;3.60;;;;;;;16.82;100.00;92815.06;1684765;83;21073;-80
2021/07/20 07:07:22;;;;;;;3.08;2.70;;;;;;;16.85;100.00;92817.50;1717644;81;21147;-81
2021/07/20 07:09:52;;;;;;;3.83;3.37;;;;;;;16.85;100.00;92812.80;1670068;81;21048;-80
2021/07/20 07:12:22;;;;;;;4.08;3.58;;;;;;;16.88;100.00;92818.74;1652435;84;21038;-81
2021/07/20 07:14:53;;;;;;;7.08;3.77;;;;;;;16.90;100.00;92816.33;1651829;85;21074;-80
2021/07/20 07:17:22;;;;;;;3.72;3.12;;;;;;;16.91;100.00;92810.98;1659191;85;21076;-81
2021/07/20 07:22:58;;;;;;;4.87;3.62;;;;;;;16.95;100.00;92816.34;1658383;83;21087;-83
2021/07/20 07:25:27;;;;;;;5.35;3.22;;;;;;;16.98;100.00;92817.58;1705554;82;21160;-82
2021/07/20 07:27:56;;;;;;;3.77;3.47;;;;;;;17.02;100.00;92814.70;1691316;82;21101;-84
2021/07/20 07:30:27;;;;;;;14.28;7.28;;;;;;;17.06;100.00;92814.56;1693070;82;21387;-82
2021/07/20 07:32:55;;;;;;;24.92;12.95;;;;;;;17.06;100.00;92806.33;1647398;83;21133;-80
2021/07/20 07:35:32;;;;;;;42.73;21.20;;;;;;;17.07;100.00;92802.36;1706148;81;21555;-82
2021/07/20 07:38:13;;;;;;;74.47;29.07;;;;;;;17.06;100.00;92801.59;1680388;83;21088;-84
2021/07/20 07:40:58;;;;;;;51.60;20.88;;;;;;;17.04;100.00;92801.30;1691074;82;21079;-80
2021/07/20 07:43:27;;;;;;;35.08;14.75;;;;;;;17.05;100.00;92798.70;1654821;84;21217;-81
2021/07/20 07:45:59;;;;;;;9.48;6.22;;;;;;;17.06;100.00;92794.73;1710329;82;21145;-81
2021/07/20 07:48:36;;;;;;;7.33;4.25;;;;;;;17.11;100.00;92790.05;1713982;82;21184;-81
2021/07/20 07:51:05;;;;;;;3.72;3.37;;;;;;;17.14;100.00;92793.23;1707673;82;21150;-82
2021/07/20 07:53:45;;;;;;;7.95;3.37;;;;;;;17.17;100.00;92787.45;1698253;82;21586;-80
2021/07/20 07:56:21;;;;;;;5.20;3.00;;;;;;;17.19;100.00;92793.27;1708946;82;21099;-82
2021/07/20 08:20:35;;;;;;;4.17;3.02;;;;;;;17.38;100.00;92775.63;1733894;80;21563;-80
2021/07/20 08:23:10;;;;;;;5.60;4.40;;;;;;;17.30;100.00;92776.34;1735204;80;21013;-81
2021/07/20 08:25:51;;;;;;;;;;;;;;;17.26;100.00;92773.73;1705581;82;21004;-81
2021/07/20 08:54:39;;;;;;;5.05;3.08;;;;;;;17.36;100.00;92748.44;1705253;81;21088;-80
2021/07/20 08:57:14;;;;;;;2.98;2.58;;;;;;;17.30;100.00;92744.75;1647233;85;21286;-82
2021/07/20 08:59:44;;;;;;;3.60;2.50;;;;;;;17.25;100.00;92744.74;1647105;85;21253;-82
2021/07/20 09:20:50;;;;;;;2.12;2.02;;;;;;;17.30;100.00;92737.30;1696561;82;21133;-83
2021/07/20 09:23:41;;;;;;;2.47;2.27;;;;;;;17.35;100.00;92735.92;1712418;81;21520;-82
2021/07/20 09:29:30;;;;;;;2.42;2.20;;;;;;;17.48;100.00;92736.55;1694170;82;22790;-84
2021/07/20 10:08:17;;;;;;;2.70;2.00;;;;;;;17.71;100.00;92722.24;1682903;83;20991;-79
2021/07/20 10:14:11;;;;;;;1.92;1.40;;;;;;;17.81;100.00;92718.14;1734020;80;20994;-81
2021/07/20 10:20:10;;;;;;;2.60;0.80;;;;;;;17.82;100.00;92712.17;1737901;80;21750;-79
2021/07/20 10:26:07;;;;;;;1.75;0.60;;;;;;;17.89;100.00;92712.48;1627743;85;21165;-79
2021/07/20 10:28:56;;;;;;;0.68;0.68;;;;;;;17.89;100.00;92709.73;1697327;82;21061;-80
2021/07/20 10:31:48;;;;;;;0.35;0.35;;;;;;;17.92;100.00;92708.82;1689149;82;21136;-79
2021/07/20 10:34:29;;;;;;;0.70;0.70;;;;;;;17.90;100.00;92706.55;1733190;80;21576;-78
2021/07/20 10:37:22;;;;;;;0.50;0.50;;;;;;;17.88;100.00;92706.84;1689282;81;21108;-79
2021/07/20 10:40:07;;;;;;;0.30;0.30;;;;;;;17.84;100.00;92703.48;1697423;81;21488;-77
2021/07/20 10:43:00;;;;;;;1.02;0.50;;;;;;;17.78;100.00;92707.44;1734982;79;21722;-81
2021/07/20 10:45:40;;;;;;;0.62;0.60;;;;;;;17.75;100.00;92709.72;1745961;80;21042;-78
2021/07/20 10:48:31;;;;;;;0.35;0.17;;;;;;;17.71;100.00;92715.37;1736903;80;21117;-79
2021/07/20 10:51:10;;;;;;;2.12;0.30;;;;;;;17.72;100.00;92709.26;1746976;80;20958;-80
2021/07/20 10:54:36;;;;;;;0.30;0.30;;;;;;;17.75;100.00;92706.98;1712016;81;21144;-80
2021/07/20 10:57:27;;;;;;;1.17;0.30;;;;;;;17.79;100.00;92703.48;1695349;82;21076;-80
2021/07/20 11:00:19;;;;;;;0.95;0.40;;;;;;;17.84;100.00;92696.61;1687762;80;21567;-78
2021/07/20 11:03:16;;;;;;;0.20;0.20;;;;;;;17.87;100.00;92695.70;1731598;80;21550;-79
2021/07/20 11:05:58;;;;;;;1.02;1.00;;;;;;;17.87;100.00;92698.45;1693861;81;21351;-78
2021/07/20 11:08:44;;;;;;;0.28;0.28;;;;;;;17.84;100.00;92695.99;1710151;80;21007;-77
2021/07/20 11:12:12;;;;;;;0.28;0.20;;;;;;;17.81;100.00;92696.14;1679254;80;27187;-77
2021/07/20 11:14:49;;;;;;;0.37;0.30;;;;;;;17.73;100.00;92694.28;1721702;80;21022;-78
2021/07/20 11:23:56;;;;;;;1.52;1.25;;;;;;;17.30;98.95;92698.83;1734194;80;21043;-76
2021/07/20 11:26:37;;;;;;;0.60;0.60;;;;;;;17.17;99.91;92694.81;1743217;78;21053;-77
2021/07/20 11:29:17;;;;;;;2.87;2.60;;;;;;;17.10;100.00;92699.84;1721772;81;21057;-77
2021/07/20 11:32:20;;;;;;;1.95;0.47;;;;;;;17.04;100.00;92691.44;1757533;80;20987;-76
2021/07/20 11:35:22;;;;;;;1.32;1.22;;;;;;;17.01;100.00;92695.70;1731028;81;21054;-79
2021/07/20 11:38:09;;;;;;;1.60;1.47;;;;;;;16.97;100.00;92692.48;1639541;84;21183;-78
2021/07/20 11:41:20;;;;;;;3.98;3.58;;;;;;;16.99;100.00;92689.27;1673437;81;21070;-79
2021/07/20 11:47:25;;;;;;;0.80;0.80;;;;;;;16.99;100.00;92684.54;1694227;82;21091;-78
2021/07/20 12:00:20;;;;;;;1.07;0.98;;;;;;;16.96;100.00;92684.68;1730002;79;21069;-77
2021/07/20 12:03:36;;;;;;;0.60;0.60;;;;;;;16.94;100.00;92685.75;1721684;81;21109;-77
2021/07/20 12:06:50;;;;;;;2.45;2.00;;;;;;;16.88;100.00;92684.81;1751888;80;21234;-77
2021/07/20 12:18:16;;;;;;;0.80;0.80;;;;;;;16.82;100.00;92689.38;1704296;81;21961;-77
2021/07/20 12:20:57;;;;;;;0.62;0.47;;;;;;;16.80;100.00;92689.06;1668029;83;21113;-82
2021/07/20 12:24:22;;;;;;;2.37;0.60;;;;;;;16.81;100.00;92691.95;1695783;82;21535;-80
2021/07/20 12:27:15;;;;;;;1.40;1.30;;;;;;;16.81;100.00;92692.72;1713285;80;22169;-81
2021/07/20 12:29:43;;;;;;;1.02;0.60;;;;;;;16.81;100.00;92690.58;1622666;86;22127;-80
2021/07/20 12:32:15;;;;;;;1.32;0.80;;;;;;;16.81;100.00;92694.70;1667103;82;21164;-80
2021/07/20 12:37:31;;;;;;;0.40;0.30;;;;;;;16.85;100.00;92695.32;1672571;83;21128;-79
2021/07/20 12:40:01;;;;;;;2.25;1.22;;;;;;;16.83;100.00;92691.67;1701156;82;21092;-79
2021/07/20 12:42:45;;;;;;;0.50;0.50;;;;;;;16.80;100.00;92689.82;1719823;80;21064;-79
2021/07/20 12:45:16;;;;;;;0.45;0.45;;;;;;;16.77;100.00;92692.70;1695971;82;21083;-79
2021/07/20 12:47:51;;;;;;;0.60;0.55;;;;;;;16.75;100.00;92696.67;1680732;83;21060;-79
2021/07/20 12:50:39;;;;;;;0.40;0.40;;;;;;;16.70;100.00;92683.52;1735056;82;21027;-85
2021/07/20 12:53:13;;;;;;;1.20;1.10;;;;;;;16.64;100.00;92689.43;1751206;78;21031;-83
2021/07/20 12:55:48;;;;;;;1.27;0.50;;;;;;;16.63;100.00;92694.01;1772218;78;26961;-84
2021/07/20 12:58:25;;;;;;;0.30;0.30;;;;;;;16.64;100.00;92695.53;1755464;79;21076;-79
2021/07/20 13:01:05;;;;;;;0.93;0.80;;;;;;;16.64;100.00;92695.53;1780839;78;21000;-83
2021/07/20 13:03:37;;;;;;;0.53;0.53;;;;;;;16.62;100.00;92694.59;1691477;81;21089;-83
2021/07/20 13:06:07;;;;;;;0.20;0.20;;;;;;;16.66;100.00;92697.99;1699476;81;21118;-83
2021/07/20 13:08:37;;;;;;;0.85;0.28;;;;;;;16.69;100.00;92701.18;1709292;81;21146;-82
2021/07/20 13:11:07;;;;;;;0.10;0.10;;;;;;;16.70;100.00;92701.36;1695915;82;21092;-83
2021/07/20 13:13:36;;;;;;;0.10;0.10;;;;;;;16.74;100.00;92702.62;1669024;78;21102;-85
2021/07/20 13:16:11;;;;;;;1.05;0.90;;;;;;;16.78;100.00;92697.00;1787234;78;21036;-81
2021/07/20 13:18:37;;;;;;;;;;;;;;;16.81;100.00;92698.81;1663962;84;21053;-83
2021/07/20 13:21:06;;;;;;;0.30;0.30;;;;;;;16.78;100.00;92693.64;1733549;80;20184;-81
2021/07/20 13:23:42;;;;;;;1.55;0.45;;;;;;;16.73;100.00;92701.05;1741772;80;21161;-81
2021/07/20 13:26:40;;;;;;;0.50;0.50;;;;;;;16.67;100.00;92699.52;1756116;80;21088;-82
2021/07/20 13:29:09;;;;;;;0.40;0.40;;;;;;;16.63;100.00;92693.39;1735663;80;21122;-80
2021/07/20 13:31:45;;;;;;;1.40;0.30;;;;;;;16.60;100.00;92696.28;1754181;80;21620;-83
2021/07/20 13:34:21;;;;;;;1.02;0.40;;;;;;;16.58;100.00;92700.83;1695032;83;21101;-83
2021/07/20 13:36:56;;;;;;;0.68;0.62;;;;;;;16.57;100.00;92704.80;1675310;83;21208;-82
2021/07/20 13:39:27;;;;;;;0.30;0.30;;;;;;;16.53;100.00;92702.80;1723431;80;21599;-81
2021/07/20 13:42:01;;;;;;;0.10;0.10;;;;;;;16.50;100.00;92700.34;1745075;80;21066;-80
2021/07/20 13:44:31;;;;;;;1.02;0.60;;;;;;;16.47;99.50;92704.59;1728302;80;21047;-80
2021/07/20 13:46:59;;;;;;;2.22;0.10;;;;;;;16.42;99.26;92705.17;1743768;80;21023;-82
2021/07/20 13:49:34;;;;;;;2.37;0.57;;;;;;;16.41;99.45;92711.27;1742129;80;21075;-81
2021/07/20 13:58:28;;;;;;;1.95;1.17;;;;;;;16.26;98.24;92708.91;1739151;80;21547;-80
2021/07/20 14:22:42;;;;;;;0.40;0.35;;;;;;;15.92;99.81;92731.68;1782880;78;21096;-83
2021/07/20 14:25:13;;;;;;;0.50;0.40;;;;;;;15.87;100.00;92734.97;1751178;80;21083;-83
2021/07/20 14:27:43;;;;;;;4.85;3.20;;;;;;;15.85;100.00;92738.78;1763279;79;21096;-79
2021/07/20 14:50:26;;;;;;;2.33;1.27;;;;;;;15.58;100.00;92755.12;1748616;79;21137;-79
2021/07/20 14:53:27;;;;;;;0.72;0.40;;;;;;;15.53;100.00;92759.77;1751728;79;21150;-78
2021/07/20 14:56:14;;;;;;;0.70;0.70;;;;;;;15.48;100.00;92767.95;1721946;81;21645;-77
2021/07/20 14:58:59;;;;;;;1.07;0.50;;;;;;;15.47;100.00;92763.69;1716112;81;21120;-79
2021/07/20 15:26:21;;;;;;;0.70;0.30;;;;;;;15.38;100.00;92784.13;1724305;80;21682;-78
2021/07/20 15:28:57;;;;;;;2.98;1.47;;;;;;;15.36;100.00;92789.91;1679351;82;21094;-81
2021/07/20 15:31:23;;;;;;;0.57;0.57;;;;;;;15.33;100.00;92783.32;1756715;79;21096;-80
2021/07/20 15:48:08;;;;;;;1.40;0.95;;;;;;;15.26;100.00;92791.77;1748838;80;21640;-78
2021/07/20 15:50:37;;;;;;;2.83;1.12;;;;;;;15.25;100.00;92793.73;1730768;81;21096;-78
2021/07/20 15:53:10;;;;;;;2.35;1.17;;;;;;;15.25;100.00;92796.48;1761683;79;21084;-78
2021/07/20 15:55:36;;;;;;;1.40;0.98;;;;;;;15.22;100.00;92792.48;1719894;81;22244;-78
2021/07/20 15:58:05;;;;;;;2.08;1.20;;;;;;;15.21;100.00;92798.56;1736573;80;20934;-79
2021/07/20 16:21:25;;;;;;;1.87;1.35;;;;;;;14.98;100.00;92827.05;1724308;81;21630;-83
2021/07/20 17:08:26;;;;;;;2.02;1.30;;;;;;;14.56;100.00;92887.28;1680116;82;21022;-84